sensor_id;sensor_type;location;lat;lon;timestamp;pressure;altitude;pressure_sealevel;temperature
64904;BMP280;51401;48.882;12.598;2023-09-07T00:00:58;64124.22;;;-137.53
64904;BMP280;51401;48.882;12.598;2023-09-07T00:03:23;64124.22;;;-137.53
64904;BMP280;51401;48.882;12.598;2023-09-07T00:05:49;64128.19;;;-137.53
64904;BMP280;51401;48.882;12.598;2023-09-07T00:08:14;64124.22;;;-137.53
64904;BMP280;51401;48.882;12.598;2023-09-07T00:10:39;64124.22;;;-137.53
64904;BMP280;51401;48.882;12.598;2023-09-07T00:13:04;64124.22;;;-137.53
64904;BMP280;51401;48.882;12.598;2023-09-07T00:15:35;64124.22;;;-137.53
64904;BMP280;51401;48.882;12.598;2023-09-07T00:18:01;64124.22;;;-137.53
64904;BMP280;51401;48.882;12.598;2023-09-07T00:20:26;64122.22;;;-137.53
64904;BMP280;51401;48.882;12.598;2023-09-07T00:22:52;64122.22;;;-137.53
64904;BMP280;51401;48.882;12.598;2023-09-07T00:25:17;64124.22;;;-137.53
64904;BMP280;51401;48.882;12.598;2023-09-07T00:27:43;64128.19;;;-137.53
64904;BMP280;51401;48.882;12.598;2023-09-07T00:30:09;64124.22;;;-137.53
64904;BMP280;51401;48.882;12.598;2023-09-07T00:32:36;64124.22;;;-137.53
64904;BMP280;51401;48.882;12.598;2023-09-07T00:35:01;64124.22;;;-137.53
64904;BMP280;51401;48.882;12.598;2023-09-07T00:37:27;64120.25;;;-137.53
64904;BMP280;51401;48.882;12.598;2023-09-07T00:39:52;64128.19;;;-137.53
64904;BMP280;51401;48.882;12.598;2023-09-07T00:42:18;64124.22;;;-137.53
64904;BMP280;51401;48.882;12.598;2023-09-07T00:44:43;64124.22;;;-137.53
64904;BMP280;51401;48.882;12.598;2023-09-07T00:47:08;64124.22;;;-137.53
64904;BMP280;51401;48.882;12.598;2023-09-07T00:49:34;64124.22;;;-137.53
64904;BMP280;51401;48.882;12.598;2023-09-07T00:51:59;64124.22;;;-137.53
64904;BMP280;51401;48.882;12.598;2023-09-07T00:54:25;64124.22;;;-137.53
64904;BMP280;51401;48.882;12.598;2023-09-07T00:56:50;64124.22;;;-137.53
64904;BMP280;51401;48.882;12.598;2023-09-07T00:59:15;64124.22;;;-137.53
64904;BMP280;51401;48.882;12.598;2023-09-07T01:01:41;64122.22;;;-137.53
64904;BMP280;51401;48.882;12.598;2023-09-07T01:04:08;64124.22;;;-137.53
64904;BMP280;51401;48.882;12.598;2023-09-07T01:06:39;64124.22;;;-137.53
64904;BMP280;51401;48.882;12.598;2023-09-07T01:09:15;64124.22;;;-137.53
64904;BMP280;51401;48.882;12.598;2023-09-07T01:11:43;64126.19;;;-137.53
64904;BMP280;51401;48.882;12.598;2023-09-07T01:14:09;64124.22;;;-137.53
64904;BMP280;51401;48.882;12.598;2023-09-07T01:16:34;64124.22;;;-137.53
64904;BMP280;51401;48.882;12.598;2023-09-07T01:19:01;64122.22;;;-137.53
64904;BMP280;51401;48.882;12.598;2023-09-07T01:21:27;64126.19;;;-137.53
64904;BMP280;51401;48.882;12.598;2023-09-07T01:23:54;64126.19;;;-137.53
64904;BMP280;51401;48.882;12.598;2023-09-07T01:26:19;64124.22;;;-137.53
64904;BMP280;51401;48.882;12.598;2023-09-07T01:28:45;64126.19;;;-137.53
64904;BMP280;51401;48.882;12.598;2023-09-07T01:31:10;64124.22;;;-137.53
64904;BMP280;51401;48.882;12.598;2023-09-07T01:33:35;64124.22;;;-137.53
64904;BMP280;51401;48.882;12.598;2023-09-07T01:36:01;64124.22;;;-137.53
64904;BMP280;51401;48.882;12.598;2023-09-07T01:38:27;64126.19;;;-137.53
64904;BMP280;51401;48.882;12.598;2023-09-07T01:40:52;64126.19;;;-137.53
64904;BMP280;51401;48.882;12.598;2023-09-07T01:43:17;64124.22;;;-137.53
64904;BMP280;51401;48.882;12.598;2023-09-07T01:45:42;64128.19;;;-137.53
64904;BMP280;51401;48.882;12.598;2023-09-07T01:48:13;64124.22;;;-137.53
64904;BMP280;51401;48.882;12.598;2023-09-07T01:50:39;64124.22;;;-137.53
64904;BMP280;51401;48.882;12.598;2023-09-07T01:53:04;64126.19;;;-137.53
64904;BMP280;51401;48.882;12.598;2023-09-07T01:55:30;64126.19;;;-137.53
64904;BMP280;51401;48.882;12.598;2023-09-07T01:57:56;64126.19;;;-137.53
64904;BMP280;51401;48.882;12.598;2023-09-07T02:00:21;64126.19;;;-137.53
64904;BMP280;51401;48.882;12.598;2023-09-07T02:02:46;64126.19;;;-137.53
64904;BMP280;51401;48.882;12.598;2023-09-07T02:05:12;64124.22;;;-137.53
64904;BMP280;51401;48.882;12.598;2023-09-07T02:07:37;64128.19;;;-137.53
64904;BMP280;51401;48.882;12.598;2023-09-07T02:10:03;64128.19;;;-137.53
64904;BMP280;51401;48.882;12.598;2023-09-07T02:12:29;64128.19;;;-137.53
64904;BMP280;51401;48.882;12.598;2023-09-07T02:14:55;64130.16;;;-137.53
64904;BMP280;51401;48.882;12.598;2023-09-07T02:17:20;64122.22;;;-137.53
64904;BMP280;51401;48.882;12.598;2023-09-07T02:19:46;64124.22;;;-137.53
64904;BMP280;51401;48.882;12.598;2023-09-07T02:22:11;64128.19;;;-137.53
64904;BMP280;51401;48.882;12.598;2023-09-07T02:24:37;64126.19;;;-137.53
64904;BMP280;51401;48.882;12.598;2023-09-07T02:27:02;64124.22;;;-137.53
64904;BMP280;51401;48.882;12.598;2023-09-07T02:29:28;64128.19;;;-137.53
64904;BMP280;51401;48.882;12.598;2023-09-07T02:31:53;64128.19;;;-137.53
64904;BMP280;51401;48.882;12.598;2023-09-07T02:34:19;64128.19;;;-137.53
64904;BMP280;51401;48.882;12.598;2023-09-07T02:36:44;64128.19;;;-137.53
64904;BMP280;51401;48.882;12.598;2023-09-07T02:39:10;64128.19;;;-137.53
64904;BMP280;51401;48.882;12.598;2023-09-07T02:41:36;64130.16;;;-137.53
64904;BMP280;51401;48.882;12.598;2023-09-07T02:44:01;64128.19;;;-137.53
64904;BMP280;51401;48.882;12.598;2023-09-07T02:46:28;64128.19;;;-137.53
64904;BMP280;51401;48.882;12.598;2023-09-07T02:48:53;64128.19;;;-137.53
64904;BMP280;51401;48.882;12.598;2023-09-07T02:51:22;64124.22;;;-137.53
64904;BMP280;51401;48.882;12.598;2023-09-07T02:53:47;64130.16;;;-137.53
64904;BMP280;51401;48.882;12.598;2023-09-07T02:56:13;64128.19;;;-137.53
64904;BMP280;51401;48.882;12.598;2023-09-07T02:58:38;64124.22;;;-137.53
64904;BMP280;51401;48.882;12.598;2023-09-07T03:01:07;64130.16;;;-137.53
64904;BMP280;51401;48.882;12.598;2023-09-07T03:03:37;64128.19;;;-137.53
64904;BMP280;51401;48.882;12.598;2023-09-07T03:06:12;64128.19;;;-137.53
64904;BMP280;51401;48.882;12.598;2023-09-07T03:08:39;64128.19;;;-137.53
64904;BMP280;51401;48.882;12.598;2023-09-07T03:11:08;64128.19;;;-137.53
64904;BMP280;51401;48.882;12.598;2023-09-07T03:13:34;64128.19;;;-137.53
64904;BMP280;51401;48.882;12.598;2023-09-07T03:16:00;64128.19;;;-137.53
64904;BMP280;51401;48.882;12.598;2023-09-07T03:18:26;64128.19;;;-137.53
64904;BMP280;51401;48.882;12.598;2023-09-07T03:20:53;64128.19;;;-137.53
64904;BMP280;51401;48.882;12.598;2023-09-07T03:23:19;64130.16;;;-137.53
64904;BMP280;51401;48.882;12.598;2023-09-07T03:25:44;64132.16;;;-137.53
64904;BMP280;51401;48.882;12.598;2023-09-07T03:28:09;64128.19;;;-137.53
64904;BMP280;51401;48.882;12.598;2023-09-07T03:30:35;64128.19;;;-137.53
64904;BMP280;51401;48.882;12.598;2023-09-07T03:33:00;64130.16;;;-137.53
64904;BMP280;51401;48.882;12.598;2023-09-07T03:35:25;64132.16;;;-137.53
64904;BMP280;51401;48.882;12.598;2023-09-07T03:37:51;64128.19;;;-137.53
64904;BMP280;51401;48.882;12.598;2023-09-07T03:40:16;64128.19;;;-137.53
64904;BMP280;51401;48.882;12.598;2023-09-07T03:42:41;64128.19;;;-137.53
64904;BMP280;51401;48.882;12.598;2023-09-07T03:45:08;64128.19;;;-137.53
64904;BMP280;51401;48.882;12.598;2023-09-07T03:47:34;64126.19;;;-137.53
64904;BMP280;51401;48.882;12.598;2023-09-07T03:49:59;64128.19;;;-137.53
64904;BMP280;51401;48.882;12.598;2023-09-07T03:52:25;64128.19;;;-137.53
64904;BMP280;51401;48.882;12.598;2023-09-07T03:54:53;64126.19;;;-137.53
64904;BMP280;51401;48.882;12.598;2023-09-07T03:57:19;64130.16;;;-137.53
64904;BMP280;51401;48.882;12.598;2023-09-07T03:59:45;64130.16;;;-137.53
64904;BMP280;51401;48.882;12.598;2023-09-07T04:02:11;64130.16;;;-137.53
64904;BMP280;51401;48.882;12.598;2023-09-07T04:04:36;64128.19;;;-137.53
64904;BMP280;51401;48.882;12.598;2023-09-07T04:07:01;64132.16;;;-137.53
64904;BMP280;51401;48.882;12.598;2023-09-07T04:09:27;64128.19;;;-137.53
64904;BMP280;51401;48.882;12.598;2023-09-07T04:11:52;64132.16;;;-137.53
64904;BMP280;51401;48.882;12.598;2023-09-07T04:14:17;64130.16;;;-137.53
64904;BMP280;51401;48.882;12.598;2023-09-07T04:16:42;64132.16;;;-137.53
64904;BMP280;51401;48.882;12.598;2023-09-07T04:19:08;64132.16;;;-137.53
64904;BMP280;51401;48.882;12.598;2023-09-07T04:21:35;64132.16;;;-137.53
64904;BMP280;51401;48.882;12.598;2023-09-07T04:24:01;64130.16;;;-137.53
64904;BMP280;51401;48.882;12.598;2023-09-07T04:26:26;64132.16;;;-137.53
64904;BMP280;51401;48.882;12.598;2023-09-07T04:28:51;64132.16;;;-137.53
64904;BMP280;51401;48.882;12.598;2023-09-07T04:31:17;64126.19;;;-137.53
64904;BMP280;51401;48.882;12.598;2023-09-07T04:33:42;64130.16;;;-137.53
64904;BMP280;51401;48.882;12.598;2023-09-07T04:36:12;64132.16;;;-137.53
64904;BMP280;51401;48.882;12.598;2023-09-07T04:38:38;64130.16;;;-137.53
64904;BMP280;51401;48.882;12.598;2023-09-07T04:41:10;64132.16;;;-137.53
64904;BMP280;51401;48.882;12.598;2023-09-07T04:43:37;64130.16;;;-137.53
64904;BMP280;51401;48.882;12.598;2023-09-07T04:46:05;64132.16;;;-137.53
64904;BMP280;51401;48.882;12.598;2023-09-07T04:48:31;64128.19;;;-137.53
64904;BMP280;51401;48.882;12.598;2023-09-07T04:51:00;64128.19;;;-137.53
64904;BMP280;51401;48.882;12.598;2023-09-07T04:53:28;64132.16;;;-137.53
64904;BMP280;51401;48.882;12.598;2023-09-07T04:55:53;64132.16;;;-137.53
64904;BMP280;51401;48.882;12.598;2023-09-07T04:58:19;64130.16;;;-137.53
64904;BMP280;51401;48.882;12.598;2023-09-07T05:00:44;64130.16;;;-137.53
64904;BMP280;51401;48.882;12.598;2023-09-07T05:03:09;64130.16;;;-137.53
64904;BMP280;51401;48.882;12.598;2023-09-07T05:05:34;64130.16;;;-137.53
64904;BMP280;51401;48.882;12.598;2023-09-07T05:08:00;64134.13;;;-137.53
64904;BMP280;51401;48.882;12.598;2023-09-07T05:10:25;64132.16;;;-137.53
64904;BMP280;51401;48.882;12.598;2023-09-07T05:12:50;64128.19;;;-137.53
64904;BMP280;51401;48.882;12.598;2023-09-07T05:15:16;64128.19;;;-137.53
64904;BMP280;51401;48.882;12.598;2023-09-07T05:17:42;64130.16;;;-137.53
64904;BMP280;51401;48.882;12.598;2023-09-07T05:20:08;64130.16;;;-137.53
64904;BMP280;51401;48.882;12.598;2023-09-07T05:22:34;64128.19;;;-137.53
64904;BMP280;51401;48.882;12.598;2023-09-07T05:25:02;64128.19;;;-137.53
64904;BMP280;51401;48.882;12.598;2023-09-07T05:27:28;64128.19;;;-137.53
64904;BMP280;51401;48.882;12.598;2023-09-07T05:29:53;64124.22;;;-137.53
64904;BMP280;51401;48.882;12.598;2023-09-07T05:32:18;64124.22;;;-137.53
64904;BMP280;51401;48.882;12.598;2023-09-07T05:34:43;64124.22;;;-137.53
64904;BMP280;51401;48.882;12.598;2023-09-07T05:37:09;64122.22;;;-137.53
64904;BMP280;51401;48.882;12.598;2023-09-07T05:39:34;64118.25;;;-137.53
64904;BMP280;51401;48.882;12.598;2023-09-07T05:41:59;64124.22;;;-137.53
64904;BMP280;51401;48.882;12.598;2023-09-07T05:44:25;64120.25;;;-137.53
64904;BMP280;51401;48.882;12.598;2023-09-07T05:46:50;64120.25;;;-137.53
64904;BMP280;51401;48.882;12.598;2023-09-07T05:49:15;64118.25;;;-137.53
64904;BMP280;51401;48.882;12.598;2023-09-07T05:51:40;64114.28;;;-137.53
64904;BMP280;51401;48.882;12.598;2023-09-07T05:54:06;64120.25;;;-137.53
64904;BMP280;51401;48.882;12.598;2023-09-07T05:56:31;64116.25;;;-137.53
64904;BMP280;51401;48.882;12.598;2023-09-07T05:58:58;64118.25;;;-137.53
64904;BMP280;51401;48.882;12.598;2023-09-07T06:01:24;64114.28;;;-137.53
64904;BMP280;51401;48.882;12.598;2023-09-07T06:03:49;64114.28;;;-137.53
64904;BMP280;51401;48.882;12.598;2023-09-07T06:06:14;64112.28;;;-137.53
64904;BMP280;51401;48.882;12.598;2023-09-07T06:08:40;64110.31;;;-137.53
64904;BMP280;51401;48.882;12.598;2023-09-07T06:11:05;64108.31;;;-137.53
64904;BMP280;51401;48.882;12.598;2023-09-07T06:13:30;64106.34;;;-137.53
64904;BMP280;51401;48.882;12.598;2023-09-07T06:15:56;64108.31;;;-137.53
64904;BMP280;51401;48.882;12.598;2023-09-07T06:18:21;64110.31;;;-137.53
64904;BMP280;51401;48.882;12.598;2023-09-07T06:20:46;64108.31;;;-137.53
64904;BMP280;51401;48.882;12.598;2023-09-07T06:23:12;64108.31;;;-137.53
64904;BMP280;51401;48.882;12.598;2023-09-07T06:25:37;64108.31;;;-137.53
64904;BMP280;51401;48.882;12.598;2023-09-07T06:28:03;64100.38;;;-137.53
64904;BMP280;51401;48.882;12.598;2023-09-07T06:30:28;64102.38;;;-137.53
64904;BMP280;51401;48.882;12.598;2023-09-07T06:32:54;64100.38;;;-137.53
64904;BMP280;51401;48.882;12.598;2023-09-07T06:35:21;64100.38;;;-137.53
64904;BMP280;51401;48.882;12.598;2023-09-07T06:37:46;64100.38;;;-137.53
64904;BMP280;51401;48.882;12.598;2023-09-07T06:40:11;64098.41;;;-137.53
64904;BMP280;51401;48.882;12.598;2023-09-07T06:42:38;64100.38;;;-137.53
64904;BMP280;51401;48.882;12.598;2023-09-07T06:45:04;64100.38;;;-137.53
64904;BMP280;51401;48.882;12.598;2023-09-07T06:47:30;64098.41;;;-137.53
64904;BMP280;51401;48.882;12.598;2023-09-07T06:49:56;64100.38;;;-137.53
64904;BMP280;51401;48.882;12.598;2023-09-07T06:52:21;64100.38;;;-137.53
64904;BMP280;51401;48.882;12.598;2023-09-07T06:54:47;64096.41;;;-137.53
64904;BMP280;51401;48.882;12.598;2023-09-07T06:57:12;64096.41;;;-137.53
64904;BMP280;51401;48.882;12.598;2023-09-07T06:59:37;64098.41;;;-137.53
64904;BMP280;51401;48.882;12.598;2023-09-07T07:02:03;64094.44;;;-137.53
64904;BMP280;51401;48.882;12.598;2023-09-07T07:04:30;64096.41;;;-137.53
64904;BMP280;51401;48.882;12.598;2023-09-07T07:06:55;64096.41;;;-137.53
64904;BMP280;51401;48.882;12.598;2023-09-07T07:09:20;64092.44;;;-137.53
64904;BMP280;51401;48.882;12.598;2023-09-07T07:11:45;64094.44;;;-137.53
64904;BMP280;51401;48.882;12.598;2023-09-07T07:14:11;64092.44;;;-137.53
64904;BMP280;51401;48.882;12.598;2023-09-07T07:16:37;64092.44;;;-137.53
64904;BMP280;51401;48.882;12.598;2023-09-07T07:19:02;64092.44;;;-137.53
64904;BMP280;51401;48.882;12.598;2023-09-07T07:21:28;64092.44;;;-137.53
64904;BMP280;51401;48.882;12.598;2023-09-07T07:23:53;64092.44;;;-137.53
64904;BMP280;51401;48.882;12.598;2023-09-07T07:26:18;64090.44;;;-137.53
64904;BMP280;51401;48.882;12.598;2023-09-07T07:28:43;64092.44;;;-137.53
64904;BMP280;51401;48.882;12.598;2023-09-07T07:31:10;64086.47;;;-137.53
64904;BMP280;51401;48.882;12.598;2023-09-07T07:33:35;64096.41;;;-137.53
64904;BMP280;51401;48.882;12.598;2023-09-07T07:36:01;64092.44;;;-137.53
64904;BMP280;51401;48.882;12.598;2023-09-07T07:38:26;64090.44;;;-137.53
64904;BMP280;51401;48.882;12.598;2023-09-07T07:40:52;64092.44;;;-137.53
64904;BMP280;51401;48.882;12.598;2023-09-07T07:43:18;64096.41;;;-137.53
64904;BMP280;51401;48.882;12.598;2023-09-07T07:45:43;64090.44;;;-137.53
64904;BMP280;51401;48.882;12.598;2023-09-07T07:48:09;64088.47;;;-137.53
64904;BMP280;51401;48.882;12.598;2023-09-07T07:50:38;64088.47;;;-137.53
64904;BMP280;51401;48.882;12.598;2023-09-07T07:53:07;64084.50;;;-137.53
64904;BMP280;51401;48.882;12.598;2023-09-07T07:55:39;64086.47;;;-137.53
64904;BMP280;51401;48.882;12.598;2023-09-07T07:58:08;64088.47;;;-137.53
64904;BMP280;51401;48.882;12.598;2023-09-07T08:00:35;64080.53;;;-137.53
64904;BMP280;51401;48.882;12.598;2023-09-07T08:03:01;64088.47;;;-137.53
64904;BMP280;51401;48.882;12.598;2023-09-07T08:05:31;64084.50;;;-137.53
64904;BMP280;51401;48.882;12.598;2023-09-07T08:07:56;64084.50;;;-137.53
64904;BMP280;51401;48.882;12.598;2023-09-07T08:10:21;64084.50;;;-137.53
64904;BMP280;51401;48.882;12.598;2023-09-07T08:12:47;64084.50;;;-137.53
64904;BMP280;51401;48.882;12.598;2023-09-07T08:15:12;64084.50;;;-137.53
64904;BMP280;51401;48.882;12.598;2023-09-07T08:17:37;64080.53;;;-137.53
64904;BMP280;51401;48.882;12.598;2023-09-07T08:20:03;64082.50;;;-137.53
64904;BMP280;51401;48.882;12.598;2023-09-07T08:22:28;64082.50;;;-137.53
64904;BMP280;51401;48.882;12.598;2023-09-07T08:24:54;64080.53;;;-137.53
64904;BMP280;51401;48.882;12.598;2023-09-07T08:27:20;64080.53;;;-137.53
64904;BMP280;51401;48.882;12.598;2023-09-07T08:29:46;64084.50;;;-137.53
64904;BMP280;51401;48.882;12.598;2023-09-07T08:32:13;64082.50;;;-137.53
64904;BMP280;51401;48.882;12.598;2023-09-07T08:34:39;64076.56;;;-137.53
64904;BMP280;51401;48.882;12.598;2023-09-07T08:37:06;64080.53;;;-137.53
64904;BMP280;51401;48.882;12.598;2023-09-07T08:39:36;64080.53;;;-137.53
64904;BMP280;51401;48.882;12.598;2023-09-07T08:42:04;64080.53;;;-137.53
64904;BMP280;51401;48.882;12.598;2023-09-07T08:44:32;64080.53;;;-137.53
64904;BMP280;51401;48.882;12.598;2023-09-07T08:46:59;64080.53;;;-137.53
64904;BMP280;51401;48.882;12.598;2023-09-07T08:49:25;64078.53;;;-137.53
64904;BMP280;51401;48.882;12.598;2023-09-07T08:51:50;64080.53;;;-137.53
64904;BMP280;51401;48.882;12.598;2023-09-07T08:54:17;64082.50;;;-137.53
64904;BMP280;51401;48.882;12.598;2023-09-07T08:56:44;64084.50;;;-137.53
64904;BMP280;51401;48.882;12.598;2023-09-07T08:59:09;64082.50;;;-137.53
64904;BMP280;51401;48.882;12.598;2023-09-07T09:01:35;64080.53;;;-137.53
64904;BMP280;51401;48.882;12.598;2023-09-07T09:04:02;64074.56;;;-137.53
64904;BMP280;51401;48.882;12.598;2023-09-07T09:06:28;64072.59;;;-137.53
64904;BMP280;51401;48.882;12.598;2023-09-07T09:08:56;64072.59;;;-137.53
64904;BMP280;51401;48.882;12.598;2023-09-07T09:11:23;64074.56;;;-137.53
64904;BMP280;51401;48.882;12.598;2023-09-07T09:13:49;64074.56;;;-137.53
64904;BMP280;51401;48.882;12.598;2023-09-07T09:16:15;64072.59;;;-137.53
64904;BMP280;51401;48.882;12.598;2023-09-07T09:19:10;64074.56;;;-137.53
64904;BMP280;51401;48.882;12.598;2023-09-07T09:21:36;64078.53;;;-137.53
64904;BMP280;51401;48.882;12.598;2023-09-07T09:24:01;64072.59;;;-137.53
64904;BMP280;51401;48.882;12.598;2023-09-07T09:26:26;64072.59;;;-137.53
64904;BMP280;51401;48.882;12.598;2023-09-07T09:28:51;64072.59;;;-137.53
64904;BMP280;51401;48.882;12.598;2023-09-07T09:31:18;64074.56;;;-137.53
64904;BMP280;51401;48.882;12.598;2023-09-07T09:33:48;64072.59;;;-137.53
64904;BMP280;51401;48.882;12.598;2023-09-07T09:36:13;64070.59;;;-137.53
64904;BMP280;51401;48.882;12.598;2023-09-07T09:38:39;64072.59;;;-137.53
64904;BMP280;51401;48.882;12.598;2023-09-07T09:41:06;64072.59;;;-137.53
64904;BMP280;51401;48.882;12.598;2023-09-07T09:43:31;64076.56;;;-137.53
64904;BMP280;51401;48.882;12.598;2023-09-07T09:45:57;64074.56;;;-137.53
64904;BMP280;51401;48.882;12.598;2023-09-07T09:48:23;64074.56;;;-137.53
64904;BMP280;51401;48.882;12.598;2023-09-07T09:50:50;64070.59;;;-137.53
64904;BMP280;51401;48.882;12.598;2023-09-07T09:53:16;64072.59;;;-137.53
64904;BMP280;51401;48.882;12.598;2023-09-07T09:55:47;64072.59;;;-137.53
64904;BMP280;51401;48.882;12.598;2023-09-07T09:58:13;64072.59;;;-137.53
64904;BMP280;51401;48.882;12.598;2023-09-07T10:00:42;64076.56;;;-137.53
64904;BMP280;51401;48.882;12.598;2023-09-07T10:03:10;64076.56;;;-137.53
64904;BMP280;51401;48.882;12.598;2023-09-07T10:05:37;64072.59;;;-137.53
64904;BMP280;51401;48.882;12.598;2023-09-07T10:08:08;64072.59;;;-137.53
64904;BMP280;51401;48.882;12.598;2023-09-07T10:10:35;64076.56;;;-137.53
64904;BMP280;51401;48.882;12.598;2023-09-07T10:13:01;64076.56;;;-137.53
64904;BMP280;51401;48.882;12.598;2023-09-07T10:15:27;64072.59;;;-137.53
64904;BMP280;51401;48.882;12.598;2023-09-07T10:18:32;64078.53;;;-137.53
64904;BMP280;51401;48.882;12.598;2023-09-07T10:20:58;64072.59;;;-137.53
64904;BMP280;51401;48.882;12.598;2023-09-07T10:23:41;64076.56;;;-137.53
64904;BMP280;51401;48.882;12.598;2023-09-07T10:26:14;64076.56;;;-137.53
64904;BMP280;51401;48.882;12.598;2023-09-07T10:28:41;64076.56;;;-137.53
64904;BMP280;51401;48.882;12.598;2023-09-07T10:31:17;64074.56;;;-137.53
64904;BMP280;51401;48.882;12.598;2023-09-07T10:33:43;64076.56;;;-137.53
64904;BMP280;51401;48.882;12.598;2023-09-07T10:36:20;64074.56;;;-137.53
64904;BMP280;51401;48.882;12.598;2023-09-07T10:38:45;64074.56;;;-137.53
64904;BMP280;51401;48.882;12.598;2023-09-07T10:41:11;64076.56;;;-137.53
64904;BMP280;51401;48.882;12.598;2023-09-07T10:43:46;64072.59;;;-137.53
64904;BMP280;51401;48.882;12.598;2023-09-07T10:46:12;64070.59;;;-137.53
64904;BMP280;51401;48.882;12.598;2023-09-07T10:48:37;64076.56;;;-137.53
64904;BMP280;51401;48.882;12.598;2023-09-07T10:51:03;64074.56;;;-137.53
64904;BMP280;51401;48.882;12.598;2023-09-07T10:53:30;64072.59;;;-137.53
64904;BMP280;51401;48.882;12.598;2023-09-07T10:55:58;64078.53;;;-137.53
64904;BMP280;51401;48.882;12.598;2023-09-07T10:58:34;64076.56;;;-137.53
64904;BMP280;51401;48.882;12.598;2023-09-07T11:01:01;64076.56;;;-137.53
64904;BMP280;51401;48.882;12.598;2023-09-07T11:03:28;64076.56;;;-137.53
64904;BMP280;51401;48.882;12.598;2023-09-07T11:06:04;64074.56;;;-137.53
64904;BMP280;51401;48.882;12.598;2023-09-07T11:08:32;64076.56;;;-137.53
64904;BMP280;51401;48.882;12.598;2023-09-07T11:11:02;64072.59;;;-137.53
64904;BMP280;51401;48.882;12.598;2023-09-07T11:13:27;64074.56;;;-137.53
64904;BMP280;51401;48.882;12.598;2023-09-07T11:15:54;64068.63;;;-137.53
64904;BMP280;51401;48.882;12.598;2023-09-07T11:18:21;64068.63;;;-137.53
64904;BMP280;51401;48.882;12.598;2023-09-07T11:20:46;64072.59;;;-137.53
64904;BMP280;51401;48.882;12.598;2023-09-07T11:23:12;64068.63;;;-137.53
64904;BMP280;51401;48.882;12.598;2023-09-07T11:25:38;64072.59;;;-137.53
64904;BMP280;51401;48.882;12.598;2023-09-07T11:28:06;64072.59;;;-137.53
64904;BMP280;51401;48.882;12.598;2023-09-07T11:30:32;64072.59;;;-137.53
64904;BMP280;51401;48.882;12.598;2023-09-07T11:33:07;64070.59;;;-137.53
64904;BMP280;51401;48.882;12.598;2023-09-07T11:35:34;64068.63;;;-137.53
64904;BMP280;51401;48.882;12.598;2023-09-07T11:38:03;64070.59;;;-137.53
64904;BMP280;51401;48.882;12.598;2023-09-07T11:40:33;64072.59;;;-137.53
64904;BMP280;51401;48.882;12.598;2023-09-07T11:42:59;64072.59;;;-137.53
64904;BMP280;51401;48.882;12.598;2023-09-07T11:45:24;64070.59;;;-137.53
64904;BMP280;51401;48.882;12.598;2023-09-07T11:47:49;64068.63;;;-137.53
64904;BMP280;51401;48.882;12.598;2023-09-07T11:50:23;64070.59;;;-137.53
64904;BMP280;51401;48.882;12.598;2023-09-07T11:52:50;64072.59;;;-137.53
64904;BMP280;51401;48.882;12.598;2023-09-07T11:55:15;64070.59;;;-137.53
64904;BMP280;51401;48.882;12.598;2023-09-07T11:57:40;64072.59;;;-137.53
64904;BMP280;51401;48.882;12.598;2023-09-07T12:00:10;64072.59;;;-137.53
64904;BMP280;51401;48.882;12.598;2023-09-07T12:02:36;64070.59;;;-137.53
64904;BMP280;51401;48.882;12.598;2023-09-07T12:05:01;64070.59;;;-137.53
64904;BMP280;51401;48.882;12.598;2023-09-07T12:07:28;64072.59;;;-137.53
64904;BMP280;51401;48.882;12.598;2023-09-07T12:09:54;64070.59;;;-137.53
64904;BMP280;51401;48.882;12.598;2023-09-07T12:12:22;64072.59;;;-137.53
64904;BMP280;51401;48.882;12.598;2023-09-07T12:14:47;64072.59;;;-137.53
64904;BMP280;51401;48.882;12.598;2023-09-07T12:17:13;64070.59;;;-137.53
64904;BMP280;51401;48.882;12.598;2023-09-07T12:19:38;64068.63;;;-137.53
64904;BMP280;51401;48.882;12.598;2023-09-07T12:22:03;64070.59;;;-137.53
64904;BMP280;51401;48.882;12.598;2023-09-07T12:24:28;64068.63;;;-137.53
64904;BMP280;51401;48.882;12.598;2023-09-07T12:26:54;64072.59;;;-137.53
64904;BMP280;51401;48.882;12.598;2023-09-07T12:29:19;64072.59;;;-137.53
64904;BMP280;51401;48.882;12.598;2023-09-07T12:31:45;64068.63;;;-137.53
64904;BMP280;51401;48.882;12.598;2023-09-07T12:34:10;64070.59;;;-137.53
64904;BMP280;51401;48.882;12.598;2023-09-07T12:36:36;64070.59;;;-137.53
64904;BMP280;51401;48.882;12.598;2023-09-07T12:39:01;64072.59;;;-137.53
64904;BMP280;51401;48.882;12.598;2023-09-07T12:41:29;64072.59;;;-137.53
64904;BMP280;51401;48.882;12.598;2023-09-07T12:43:55;64072.59;;;-137.53
64904;BMP280;51401;48.882;12.598;2023-09-07T12:46:21;64074.56;;;-137.53
64904;BMP280;51401;48.882;12.598;2023-09-07T12:48:46;64072.59;;;-137.53
64904;BMP280;51401;48.882;12.598;2023-09-07T12:51:12;64076.56;;;-137.53
64904;BMP280;51401;48.882;12.598;2023-09-07T12:53:37;64074.56;;;-137.53
64904;BMP280;51401;48.882;12.598;2023-09-07T12:56:02;64072.59;;;-137.53
64904;BMP280;51401;48.882;12.598;2023-09-07T12:58:28;64072.59;;;-137.53
64904;BMP280;51401;48.882;12.598;2023-09-07T13:00:53;64076.56;;;-137.53
64904;BMP280;51401;48.882;12.598;2023-09-07T13:03:19;64074.56;;;-137.53
64904;BMP280;51401;48.882;12.598;2023-09-07T13:05:45;64072.59;;;-137.53
64904;BMP280;51401;48.882;12.598;2023-09-07T13:08:10;64072.59;;;-137.53
64904;BMP280;51401;48.882;12.598;2023-09-07T13:10:36;64068.63;;;-137.53
64904;BMP280;51401;48.882;12.598;2023-09-07T13:13:01;64068.63;;;-137.53
64904;BMP280;51401;48.882;12.598;2023-09-07T13:15:26;64070.59;;;-137.53
64904;BMP280;51401;48.882;12.598;2023-09-07T13:17:51;64070.59;;;-137.53
64904;BMP280;51401;48.882;12.598;2023-09-07T13:20:17;64068.63;;;-137.53
64904;BMP280;51401;48.882;12.598;2023-09-07T13:22:44;64068.63;;;-137.53
64904;BMP280;51401;48.882;12.598;2023-09-07T13:25:11;64068.63;;;-137.53
64904;BMP280;51401;48.882;12.598;2023-09-07T13:27:36;64066.63;;;-137.53